sensor_id;sensor_type;location;lat;lon;timestamp;P1;durP1;ratioP1;P2;durP2;ratioP2
4174;SDS011;2101;48.290;14.382;2022-08-21T00:01:44;23.63;;;6.77;;
4174;SDS011;2101;48.290;14.382;2022-08-21T00:04:11;24.97;;;7.30;;
4174;SDS011;2101;48.290;14.382;2022-08-21T00:06:37;24.43;;;6.10;;
4174;SDS011;2101;48.290;14.382;2022-08-21T00:09:04;20.33;;;5.33;;
4174;SDS011;2101;48.290;14.382;2022-08-21T00:11:30;28.37;;;6.70;;
4174;SDS011;2101;48.290;14.382;2022-08-21T00:13:56;23.13;;;6.90;;
4174;SDS011;2101;48.290;14.382;2022-08-21T00:16:23;24.13;;;7.00;;
4174;SDS011;2101;48.290;14.382;2022-08-21T00:18:49;26.07;;;7.03;;
4174;SDS011;2101;48.290;14.382;2022-08-21T00:21:15;22.90;;;5.90;;
4174;SDS011;2101;48.290;14.382;2022-08-21T00:23:42;23.17;;;6.73;;
4174;SDS011;2101;48.290;14.382;2022-08-21T00:26:08;21.80;;;5.33;;
4174;SDS011;2101;48.290;14.382;2022-08-21T00:28:34;21.97;;;6.53;;
4174;SDS011;2101;48.290;14.382;2022-08-21T00:31:00;22.23;;;6.30;;
4174;SDS011;2101;48.290;14.382;2022-08-21T00:33:28;20.77;;;5.87;;
4174;SDS011;2101;48.290;14.382;2022-08-21T00:35:55;22.23;;;6.70;;
4174;SDS011;2101;48.290;14.382;2022-08-21T00:38:21;39.93;;;5.90;;
4174;SDS011;2101;48.290;14.382;2022-08-21T00:40:49;22.50;;;6.13;;
4174;SDS011;2101;48.290;14.382;2022-08-21T00:43:16;29.43;;;7.53;;
4174;SDS011;2101;48.290;14.382;2022-08-21T00:45:43;23.57;;;7.27;;
4174;SDS011;2101;48.290;14.382;2022-08-21T00:48:09;23.77;;;6.63;;
4174;SDS011;2101;48.290;14.382;2022-08-21T00:50:37;25.00;;;7.57;;
4174;SDS011;2101;48.290;14.382;2022-08-21T00:53:04;25.53;;;7.23;;
4174;SDS011;2101;48.290;14.382;2022-08-21T00:55:31;24.50;;;7.20;;
4174;SDS011;2101;48.290;14.382;2022-08-21T00:57:58;35.23;;;8.20;;
4174;SDS011;2101;48.290;14.382;2022-08-21T01:00:30;27.33;;;8.30;;
4174;SDS011;2101;48.290;14.382;2022-08-21T01:02:57;27.37;;;7.73;;
4174;SDS011;2101;48.290;14.382;2022-08-21T01:05:24;24.07;;;7.37;;
4174;SDS011;2101;48.290;14.382;2022-08-21T01:07:51;27.20;;;8.90;;
4174;SDS011;2101;48.290;14.382;2022-08-21T01:10:18;29.33;;;8.40;;
4174;SDS011;2101;48.290;14.382;2022-08-21T01:12:44;27.77;;;8.33;;
4174;SDS011;2101;48.290;14.382;2022-08-21T01:15:10;31.43;;;9.43;;
4174;SDS011;2101;48.290;14.382;2022-08-21T01:17:39;28.10;;;8.93;;
4174;SDS011;2101;48.290;14.382;2022-08-21T01:20:07;34.30;;;9.50;;
4174;SDS011;2101;48.290;14.382;2022-08-21T01:22:34;36.67;;;10.27;;
4174;SDS011;2101;48.290;14.382;2022-08-21T01:25:00;30.43;;;9.60;;
4174;SDS011;2101;48.290;14.382;2022-08-21T01:27:26;27.60;;;9.00;;
4174;SDS011;2101;48.290;14.382;2022-08-21T01:32:19;29.43;;;8.70;;
4174;SDS011;2101;48.290;14.382;2022-08-21T01:34:47;31.67;;;8.50;;
4174;SDS011;2101;48.290;14.382;2022-08-21T01:37:13;33.00;;;10.00;;
4174;SDS011;2101;48.290;14.382;2022-08-21T01:39:40;30.83;;;8.53;;
4174;SDS011;2101;48.290;14.382;2022-08-21T01:42:07;27.13;;;9.47;;
4174;SDS011;2101;48.290;14.382;2022-08-21T01:44:33;29.37;;;8.57;;
4174;SDS011;2101;48.290;14.382;2022-08-21T01:47:00;25.70;;;8.30;;
4174;SDS011;2101;48.290;14.382;2022-08-21T01:49:27;28.23;;;9.07;;
4174;SDS011;2101;48.290;14.382;2022-08-21T01:51:53;26.80;;;8.90;;
4174;SDS011;2101;48.290;14.382;2022-08-21T01:54:19;29.27;;;9.60;;
4174;SDS011;2101;48.290;14.382;2022-08-21T01:56:47;30.93;;;8.23;;
4174;SDS011;2101;48.290;14.382;2022-08-21T01:59:13;27.93;;;8.50;;
4174;SDS011;2101;48.290;14.382;2022-08-21T02:01:39;26.80;;;8.93;;
4174;SDS011;2101;48.290;14.382;2022-08-21T02:04:06;31.10;;;9.97;;
4174;SDS011;2101;48.290;14.382;2022-08-21T02:06:32;25.80;;;8.73;;
4174;SDS011;2101;48.290;14.382;2022-08-21T02:08:59;26.63;;;7.40;;
4174;SDS011;2101;48.290;14.382;2022-08-21T02:11:25;29.67;;;9.97;;
4174;SDS011;2101;48.290;14.382;2022-08-21T02:13:51;30.30;;;8.43;;
4174;SDS011;2101;48.290;14.382;2022-08-21T02:16:17;25.07;;;8.07;;
4174;SDS011;2101;48.290;14.382;2022-08-21T02:18:44;28.90;;;8.40;;
4174;SDS011;2101;48.290;14.382;2022-08-21T02:21:10;26.27;;;7.90;;
4174;SDS011;2101;48.290;14.382;2022-08-21T02:23:36;34.03;;;9.00;;
4174;SDS011;2101;48.290;14.382;2022-08-21T02:26:03;29.40;;;8.70;;
4174;SDS011;2101;48.290;14.382;2022-08-21T02:28:30;28.80;;;7.80;;
4174;SDS011;2101;48.290;14.382;2022-08-21T02:30:56;28.67;;;7.70;;
4174;SDS011;2101;48.290;14.382;2022-08-21T02:33:22;27.80;;;8.43;;
4174;SDS011;2101;48.290;14.382;2022-08-21T02:35:49;26.97;;;8.70;;
4174;SDS011;2101;48.290;14.382;2022-08-21T02:38:19;25.17;;;8.30;;
4174;SDS011;2101;48.290;14.382;2022-08-21T02:40:47;24.20;;;7.17;;
4174;SDS011;2101;48.290;14.382;2022-08-21T02:43:14;26.17;;;8.00;;
4174;SDS011;2101;48.290;14.382;2022-08-21T02:45:40;27.30;;;7.53;;
4174;SDS011;2101;48.290;14.382;2022-08-21T02:48:08;29.73;;;8.00;;
4174;SDS011;2101;48.290;14.382;2022-08-21T02:50:36;26.87;;;7.10;;
4174;SDS011;2101;48.290;14.382;2022-08-21T02:53:02;26.00;;;8.37;;
4174;SDS011;2101;48.290;14.382;2022-08-21T02:55:30;25.63;;;8.40;;
4174;SDS011;2101;48.290;14.382;2022-08-21T02:57:57;26.07;;;7.70;;
4174;SDS011;2101;48.290;14.382;2022-08-21T03:00:24;25.57;;;8.53;;
4174;SDS011;2101;48.290;14.382;2022-08-21T03:02:50;27.77;;;8.47;;
4174;SDS011;2101;48.290;14.382;2022-08-21T03:05:18;25.30;;;8.03;;
4174;SDS011;2101;48.290;14.382;2022-08-21T03:07:44;25.63;;;8.10;;
4174;SDS011;2101;48.290;14.382;2022-08-21T03:10:11;27.00;;;8.17;;
4174;SDS011;2101;48.290;14.382;2022-08-21T03:12:37;29.17;;;8.60;;
4174;SDS011;2101;48.290;14.382;2022-08-21T03:15:04;25.00;;;7.67;;
4174;SDS011;2101;48.290;14.382;2022-08-21T03:17:31;26.53;;;8.67;;
4174;SDS011;2101;48.290;14.382;2022-08-21T03:19:57;24.80;;;8.27;;
4174;SDS011;2101;48.290;14.382;2022-08-21T03:22:24;29.83;;;9.53;;
4174;SDS011;2101;48.290;14.382;2022-08-21T03:24:50;27.03;;;8.60;;
4174;SDS011;2101;48.290;14.382;2022-08-21T03:27:16;29.10;;;8.50;;
4174;SDS011;2101;48.290;14.382;2022-08-21T03:29:42;25.77;;;8.30;;
4174;SDS011;2101;48.290;14.382;2022-08-21T03:32:09;27.90;;;8.67;;
4174;SDS011;2101;48.290;14.382;2022-08-21T03:34:35;28.33;;;8.80;;
4174;SDS011;2101;48.290;14.382;2022-08-21T03:37:02;32.20;;;8.83;;
4174;SDS011;2101;48.290;14.382;2022-08-21T03:39:29;25.07;;;8.13;;
4174;SDS011;2101;48.290;14.382;2022-08-21T03:41:55;31.63;;;8.90;;
4174;SDS011;2101;48.290;14.382;2022-08-21T03:44:21;28.33;;;9.20;;
4174;SDS011;2101;48.290;14.382;2022-08-21T03:46:47;28.00;;;9.07;;
4174;SDS011;2101;48.290;14.382;2022-08-21T03:49:15;27.20;;;8.97;;
4174;SDS011;2101;48.290;14.382;2022-08-21T03:51:41;28.63;;;8.63;;
4174;SDS011;2101;48.290;14.382;2022-08-21T03:54:07;30.47;;;9.60;;
4174;SDS011;2101;48.290;14.382;2022-08-21T03:56:33;28.17;;;9.33;;
4174;SDS011;2101;48.290;14.382;2022-08-21T03:58:59;32.03;;;9.70;;
4174;SDS011;2101;48.290;14.382;2022-08-21T04:01:27;26.87;;;9.23;;
4174;SDS011;2101;48.290;14.382;2022-08-21T04:03:53;27.40;;;9.03;;
4174;SDS011;2101;48.290;14.382;2022-08-21T04:06:19;29.33;;;9.37;;
4174;SDS011;2101;48.290;14.382;2022-08-21T04:08:45;28.67;;;9.27;;
4174;SDS011;2101;48.290;14.382;2022-08-21T04:11:11;34.47;;;10.47;;
4174;SDS011;2101;48.290;14.382;2022-08-21T04:13:38;32.37;;;9.93;;
4174;SDS011;2101;48.290;14.382;2022-08-21T04:16:05;34.57;;;10.47;;
4174;SDS011;2101;48.290;14.382;2022-08-21T04:18:31;29.90;;;10.30;;
4174;SDS011;2101;48.290;14.382;2022-08-21T04:20:57;33.57;;;12.07;;
4174;SDS011;2101;48.290;14.382;2022-08-21T04:23:24;36.10;;;12.00;;
4174;SDS011;2101;48.290;14.382;2022-08-21T04:25:51;41.23;;;13.53;;
4174;SDS011;2101;48.290;14.382;2022-08-21T04:28:17;34.70;;;11.70;;
4174;SDS011;2101;48.290;14.382;2022-08-21T04:30:44;32.53;;;11.63;;
4174;SDS011;2101;48.290;14.382;2022-08-21T04:33:10;32.83;;;10.87;;
4174;SDS011;2101;48.290;14.382;2022-08-21T04:35:36;30.50;;;10.20;;
4174;SDS011;2101;48.290;14.382;2022-08-21T04:38:02;32.03;;;9.63;;
4174;SDS011;2101;48.290;14.382;2022-08-21T04:40:28;36.60;;;10.00;;
4174;SDS011;2101;48.290;14.382;2022-08-21T04:42:56;27.53;;;9.10;;
4174;SDS011;2101;48.290;14.382;2022-08-21T04:45:28;28.23;;;10.00;;
4174;SDS011;2101;48.290;14.382;2022-08-21T04:47:55;34.47;;;10.37;;
4174;SDS011;2101;48.290;14.382;2022-08-21T04:50:22;29.03;;;9.40;;
4174;SDS011;2101;48.290;14.382;2022-08-21T04:52:49;38.53;;;11.87;;
4174;SDS011;2101;48.290;14.382;2022-08-21T04:55:16;30.23;;;10.30;;
4174;SDS011;2101;48.290;14.382;2022-08-21T04:57:43;33.27;;;10.90;;
4174;SDS011;2101;48.290;14.382;2022-08-21T05:00:09;32.70;;;11.00;;
4174;SDS011;2101;48.290;14.382;2022-08-21T05:02:38;33.10;;;11.30;;
4174;SDS011;2101;48.290;14.382;2022-08-21T05:05:04;30.07;;;10.43;;
4174;SDS011;2101;48.290;14.382;2022-08-21T05:07:30;31.03;;;11.47;;
4174;SDS011;2101;48.290;14.382;2022-08-21T05:09:58;27.73;;;9.93;;
4174;SDS011;2101;48.290;14.382;2022-08-21T05:12:24;29.07;;;10.50;;
4174;SDS011;2101;48.290;14.382;2022-08-21T05:14:50;32.53;;;11.80;;
4174;SDS011;2101;48.290;14.382;2022-08-21T05:17:16;41.33;;;9.83;;
4174;SDS011;2101;48.290;14.382;2022-08-21T05:19:43;28.33;;;10.50;;
4174;SDS011;2101;48.290;14.382;2022-08-21T05:22:09;30.80;;;10.53;;
4174;SDS011;2101;48.290;14.382;2022-08-21T05:24:35;31.40;;;9.77;;
4174;SDS011;2101;48.290;14.382;2022-08-21T05:27:01;27.83;;;9.60;;
4174;SDS011;2101;48.290;14.382;2022-08-21T05:29:28;29.00;;;9.07;;
4174;SDS011;2101;48.290;14.382;2022-08-21T05:31:55;26.00;;;9.43;;
4174;SDS011;2101;48.290;14.382;2022-08-21T05:34:22;26.83;;;8.80;;
4174;SDS011;2101;48.290;14.382;2022-08-21T05:36:48;29.60;;;9.83;;
4174;SDS011;2101;48.290;14.382;2022-08-21T05:39:14;25.60;;;8.73;;
4174;SDS011;2101;48.290;14.382;2022-08-21T05:41:40;28.00;;;9.40;;
4174;SDS011;2101;48.290;14.382;2022-08-21T05:44:07;25.50;;;9.20;;
4174;SDS011;2101;48.290;14.382;2022-08-21T05:46:33;23.17;;;7.50;;
4174;SDS011;2101;48.290;14.382;2022-08-21T05:48:59;27.83;;;9.17;;
4174;SDS011;2101;48.290;14.382;2022-08-21T05:51:25;24.60;;;8.40;;
4174;SDS011;2101;48.290;14.382;2022-08-21T05:53:51;27.70;;;9.10;;
4174;SDS011;2101;48.290;14.382;2022-08-21T05:56:17;25.77;;;8.53;;
4174;SDS011;2101;48.290;14.382;2022-08-21T05:58:43;24.67;;;7.87;;
4174;SDS011;2101;48.290;14.382;2022-08-21T06:01:09;25.03;;;8.23;;
4174;SDS011;2101;48.290;14.382;2022-08-21T06:03:37;27.37;;;8.80;;
4174;SDS011;2101;48.290;14.382;2022-08-21T06:06:04;24.23;;;7.40;;
4174;SDS011;2101;48.290;14.382;2022-08-21T06:08:30;23.90;;;7.20;;
4174;SDS011;2101;48.290;14.382;2022-08-21T06:10:57;26.53;;;7.47;;
4174;SDS011;2101;48.290;14.382;2022-08-21T06:13:24;25.50;;;7.90;;
4174;SDS011;2101;48.290;14.382;2022-08-21T06:16:00;25.80;;;8.20;;
4174;SDS011;2101;48.290;14.382;2022-08-21T06:18:26;24.23;;;7.30;;
4174;SDS011;2101;48.290;14.382;2022-08-21T06:20:52;22.73;;;7.73;;
4174;SDS011;2101;48.290;14.382;2022-08-21T06:23:18;23.40;;;7.50;;
4174;SDS011;2101;48.290;14.382;2022-08-21T06:25:44;24.03;;;7.30;;
4174;SDS011;2101;48.290;14.382;2022-08-21T06:28:11;22.70;;;7.53;;
4174;SDS011;2101;48.290;14.382;2022-08-21T06:30:38;25.90;;;7.73;;
4174;SDS011;2101;48.290;14.382;2022-08-21T06:33:05;22.20;;;6.53;;
4174;SDS011;2101;48.290;14.382;2022-08-21T06:35:32;22.63;;;6.67;;
4174;SDS011;2101;48.290;14.382;2022-08-21T06:37:58;24.10;;;7.60;;
4174;SDS011;2101;48.290;14.382;2022-08-21T06:40:25;26.33;;;8.27;;
4174;SDS011;2101;48.290;14.382;2022-08-21T06:42:51;26.60;;;8.17;;
4174;SDS011;2101;48.290;14.382;2022-08-21T06:45:17;23.40;;;7.47;;
4174;SDS011;2101;48.290;14.382;2022-08-21T06:47:44;23.37;;;7.30;;
4174;SDS011;2101;48.290;14.382;2022-08-21T06:50:10;26.63;;;7.80;;
4174;SDS011;2101;48.290;14.382;2022-08-21T06:52:36;24.43;;;7.57;;
4174;SDS011;2101;48.290;14.382;2022-08-21T06:55:06;26.70;;;8.00;;
4174;SDS011;2101;48.290;14.382;2022-08-21T06:57:32;27.73;;;8.27;;
4174;SDS011;2101;48.290;14.382;2022-08-21T06:59:58;28.77;;;7.30;;
4174;SDS011;2101;48.290;14.382;2022-08-21T07:02:24;23.30;;;7.00;;
4174;SDS011;2101;48.290;14.382;2022-08-21T07:04:51;24.90;;;7.30;;
4174;SDS011;2101;48.290;14.382;2022-08-21T07:07:17;21.40;;;5.77;;
4174;SDS011;2101;48.290;14.382;2022-08-21T07:09:43;24.17;;;7.23;;
4174;SDS011;2101;48.290;14.382;2022-08-21T07:12:09;22.57;;;6.90;;
4174;SDS011;2101;48.290;14.382;2022-08-21T07:14:35;24.60;;;7.80;;
4174;SDS011;2101;48.290;14.382;2022-08-21T07:17:02;27.83;;;8.03;;
4174;SDS011;2101;48.290;14.382;2022-08-21T07:19:28;23.87;;;7.10;;
4174;SDS011;2101;48.290;14.382;2022-08-21T07:21:55;25.00;;;7.03;;
4174;SDS011;2101;48.290;14.382;2022-08-21T07:24:23;24.47;;;6.87;;
4174;SDS011;2101;48.290;14.382;2022-08-21T07:26:49;26.10;;;8.47;;
4174;SDS011;2101;48.290;14.382;2022-08-21T07:29:15;26.00;;;7.53;;
4174;SDS011;2101;48.290;14.382;2022-08-21T07:31:42;23.30;;;7.20;;
4174;SDS011;2101;48.290;14.382;2022-08-21T07:34:08;29.27;;;7.90;;
4174;SDS011;2101;48.290;14.382;2022-08-21T07:36:34;25.50;;;7.77;;
4174;SDS011;2101;48.290;14.382;2022-08-21T07:39:00;27.40;;;8.97;;
4174;SDS011;2101;48.290;14.382;2022-08-21T07:41:27;26.10;;;7.30;;
4174;SDS011;2101;48.290;14.382;2022-08-21T07:43:55;26.73;;;8.17;;
4174;SDS011;2101;48.290;14.382;2022-08-21T07:46:24;27.40;;;8.93;;
4174;SDS011;2101;48.290;14.382;2022-08-21T07:48:51;27.07;;;9.20;;
4174;SDS011;2101;48.290;14.382;2022-08-21T07:51:17;26.20;;;8.70;;
4174;SDS011;2101;48.290;14.382;2022-08-21T07:53:50;30.00;;;9.10;;
4174;SDS011;2101;48.290;14.382;2022-08-21T07:56:17;28.00;;;8.80;;
4174;SDS011;2101;48.290;14.382;2022-08-21T07:58:43;27.60;;;9.30;;
4174;SDS011;2101;48.290;14.382;2022-08-21T08:01:10;29.60;;;8.70;;
4174;SDS011;2101;48.290;14.382;2022-08-21T08:03:36;27.73;;;8.23;;
4174;SDS011;2101;48.290;14.382;2022-08-21T08:06:02;28.43;;;8.60;;
4174;SDS011;2101;48.290;14.382;2022-08-21T08:08:30;26.10;;;8.50;;
4174;SDS011;2101;48.290;14.382;2022-08-21T08:10:56;26.53;;;9.73;;
4174;SDS011;2101;48.290;14.382;2022-08-21T08:13:22;28.00;;;9.77;;
4174;SDS011;2101;48.290;14.382;2022-08-21T08:15:49;28.03;;;9.77;;
4174;SDS011;2101;48.290;14.382;2022-08-21T08:18:15;28.43;;;8.40;;
4174;SDS011;2101;48.290;14.382;2022-08-21T08:20:41;28.50;;;9.40;;
4174;SDS011;2101;48.290;14.382;2022-08-21T08:23:10;28.27;;;9.10;;
4174;SDS011;2101;48.290;14.382;2022-08-21T08:25:36;24.63;;;8.37;;
4174;SDS011;2101;48.290;14.382;2022-08-21T08:28:02;26.33;;;8.33;;
4174;SDS011;2101;48.290;14.382;2022-08-21T08:30:29;25.33;;;8.20;;
4174;SDS011;2101;48.290;14.382;2022-08-21T08:32:55;23.17;;;7.43;;
4174;SDS011;2101;48.290;14.382;2022-08-21T08:35:22;25.30;;;8.10;;
4174;SDS011;2101;48.290;14.382;2022-08-21T08:37:50;25.90;;;7.53;;
4174;SDS011;2101;48.290;14.382;2022-08-21T08:40:26;26.67;;;9.37;;
4174;SDS011;2101;48.290;14.382;2022-08-21T08:42:54;32.37;;;8.40;;
4174;SDS011;2101;48.290;14.382;2022-08-21T08:45:21;24.63;;;8.20;;
4174;SDS011;2101;48.290;14.382;2022-08-21T08:47:52;23.00;;;7.60;;
4174;SDS011;2101;48.290;14.382;2022-08-21T08:50:49;25.07;;;8.00;;
4174;SDS011;2101;48.290;14.382;2022-08-21T08:53:14;23.67;;;7.57;;
4174;SDS011;2101;48.290;14.382;2022-08-21T08:55:42;28.80;;;8.80;;
4174;SDS011;2101;48.290;14.382;2022-08-21T08:58:14;26.67;;;8.90;;
4174;SDS011;2101;48.290;14.382;2022-08-21T09:00:42;24.33;;;7.73;;
4174;SDS011;2101;48.290;14.382;2022-08-21T09:03:09;29.60;;;9.43;;
4174;SDS011;2101;48.290;14.382;2022-08-21T09:05:40;25.50;;;8.00;;
4174;SDS011;2101;48.290;14.382;2022-08-21T09:15:56;27.77;;;8.70;;
4174;SDS011;2101;48.290;14.382;2022-08-21T09:21:09;29.97;;;10.37;;
4174;SDS011;2101;48.290;14.382;2022-08-21T09:23:49;28.90;;;10.27;;
4174;SDS011;2101;48.290;14.382;2022-08-21T09:26:17;29.60;;;9.87;;
4174;SDS011;2101;48.290;14.382;2022-08-21T09:28:45;28.70;;;9.63;;
4174;SDS011;2101;48.290;14.382;2022-08-21T09:31:22;34.40;;;10.03;;
4174;SDS011;2101;48.290;14.382;2022-08-21T09:33:48;30.00;;;9.90;;
4174;SDS011;2101;48.290;14.382;2022-08-21T09:36:25;30.73;;;10.30;;
4174;SDS011;2101;48.290;14.382;2022-08-21T09:38:53;33.63;;;10.70;;
4174;SDS011;2101;48.290;14.382;2022-08-21T09:41:28;29.33;;;9.67;;
4174;SDS011;2101;48.290;14.382;2022-08-21T09:43:56;28.27;;;10.17;;
4174;SDS011;2101;48.290;14.382;2022-08-21T09:46:23;34.30;;;11.17;;
4174;SDS011;2101;48.290;14.382;2022-08-21T09:48:51;32.73;;;10.53;;
4174;SDS011;2101;48.290;14.382;2022-08-21T09:51:19;36.87;;;12.70;;
4174;SDS011;2101;48.290;14.382;2022-08-21T09:53:49;30.37;;;11.80;;
4174;SDS011;2101;48.290;14.382;2022-08-21T09:59:33;29.87;;;10.33;;
4174;SDS011;2101;48.290;14.382;2022-08-21T10:02:01;30.50;;;10.83;;
4174;SDS011;2101;48.290;14.382;2022-08-21T10:04:28;33.20;;;10.90;;
4174;SDS011;2101;48.290;14.382;2022-08-21T10:07:05;28.43;;;10.00;;
4174;SDS011;2101;48.290;14.382;2022-08-21T10:09:31;30.20;;;9.60;;
4174;SDS011;2101;48.290;14.382;2022-08-21T10:19:32;21.13;;;5.97;;
4174;SDS011;2101;48.290;14.382;2022-08-21T10:22:08;21.87;;;6.50;;
4174;SDS011;2101;48.290;14.382;2022-08-21T10:30:07;18.40;;;2.60;;
4174;SDS011;2101;48.290;14.382;2022-08-21T10:40:31;20.47;;;5.30;;
4174;SDS011;2101;48.290;14.382;2022-08-21T10:48:22;21.17;;;5.00;;
4174;SDS011;2101;48.290;14.382;2022-08-21T10:51:02;19.37;;;3.97;;
4174;SDS011;2101;48.290;14.382;2022-08-21T10:53:39;15.17;;;1.77;;
4174;SDS011;2101;48.290;14.382;2022-08-21T10:59:00;18.10;;;3.67;;
4174;SDS011;2101;48.290;14.382;2022-08-21T11:01:33;18.37;;;3.30;;
4174;SDS011;2101;48.290;14.382;2022-08-21T11:04:04;16.30;;;3.33;;
4174;SDS011;2101;48.290;14.382;2022-08-21T11:06:33;16.80;;;2.70;;
4174;SDS011;2101;48.290;14.382;2022-08-21T11:09:04;15.97;;;2.63;;
4174;SDS011;2101;48.290;14.382;2022-08-21T11:11:34;16.20;;;2.70;;
4174;SDS011;2101;48.290;14.382;2022-08-21T11:19:02;13.87;;;1.50;;
4174;SDS011;2101;48.290;14.382;2022-08-21T11:26:36;13.70;;;1.30;;
4174;SDS011;2101;48.290;14.382;2022-08-21T11:29:08;15.03;;;1.47;;
4174;SDS011;2101;48.290;14.382;2022-08-21T11:36:37;13.60;;;1.30;;
4174;SDS011;2101;48.290;14.382;2022-08-21T11:39:20;13.27;;;1.00;;
4174;SDS011;2101;48.290;14.382;2022-08-21T11:41:57;14.13;;;1.50;;
4174;SDS011;2101;48.290;14.382;2022-08-21T11:47:15;14.80;;;1.50;;
4174;SDS011;2101;48.290;14.382;2022-08-21T11:52:27;17.50;;;2.70;;
4174;SDS011;2101;48.290;14.382;2022-08-21T11:58:04;15.80;;;2.70;;
4174;SDS011;2101;48.290;14.382;2022-08-21T12:00:47;16.30;;;2.90;;
4174;SDS011;2101;48.290;14.382;2022-08-21T12:08:40;16.67;;;3.07;;
4174;SDS011;2101;48.290;14.382;2022-08-21T12:11:08;26.37;;;3.27;;
4174;SDS011;2101;48.290;14.382;2022-08-21T12:13:39;21.90;;;2.60;;
4174;SDS011;2101;48.290;14.382;2022-08-21T12:18:32;15.57;;;2.27;;
4174;SDS011;2101;48.290;14.382;2022-08-21T12:23:29;16.23;;;2.40;;
4174;SDS011;2101;48.290;14.382;2022-08-21T12:28:27;15.00;;;2.17;;
4174;SDS011;2101;48.290;14.382;2022-08-21T12:30:55;14.60;;;1.90;;
4174;SDS011;2101;48.290;14.382;2022-08-21T12:33:23;16.33;;;2.17;;
4174;SDS011;2101;48.290;14.382;2022-08-21T12:35:50;16.00;;;2.30;;
4174;SDS011;2101;48.290;14.382;2022-08-21T12:38:21;15.53;;;2.00;;
4174;SDS011;2101;48.290;14.382;2022-08-21T12:40:53;16.10;;;1.87;;
4174;SDS011;2101;48.290;14.382;2022-08-21T12:43:40;14.77;;;1.90;;
4174;SDS011;2101;48.290;14.382;2022-08-21T12:46:13;14.43;;;1.83;;
4174;SDS011;2101;48.290;14.382;2022-08-21T12:54:08;14.87;;;1.50;;
4174;SDS011;2101;48.290;14.382;2022-08-21T12:56:34;15.50;;;1.90;;
4174;SDS011;2101;48.290;14.382;2022-08-21T12:59:03;13.70;;;1.30;;
4174;SDS011;2101;48.290;14.382;2022-08-21T13:01:37;13.97;;;1.37;;
4174;SDS011;2101;48.290;14.382;2022-08-21T13:04:08;15.33;;;1.70;;
4174;SDS011;2101;48.290;14.382;2022-08-21T13:06:40;13.70;;;1.50;;
4174;SDS011;2101;48.290;14.382;2022-08-21T13:09:08;14.10;;;1.40;;
4174;SDS011;2101;48.290;14.382;2022-08-21T13:11:34;14.80;;;1.90;;
4174;SDS011;2101;48.290;14.382;2022-08-21T13:14:02;16.40;;;1.30;;
4174;SDS011;2101;48.290;14.382;2022-08-21T13:16:29;14.43;;;1.60;;
4174;SDS011;2101;48.290;14.382;2022-08-21T13:19:00;15.97;;;2.33;;
4174;SDS011;2101;48.290;14.382;2022-08-21T13:21:30;14.67;;;1.90;;
4174;SDS011;2101;48.290;14.382;2022-08-21T13:26:52;14.63;;;1.90;;
4174;SDS011;2101;48.290;14.382;2022-08-21T13:29:20;14.00;;;1.43;;
4174;SDS011;2101;48.290;14.382;2022-08-21T13:31:48;14.23;;;1.40;;
4174;SDS011;2101;48.290;14.382;2022-08-21T13:34:14;23.43;;;1.67;;
4174;SDS011;2101;48.290;14.382;2022-08-21T13:36:42;14.03;;;1.57;;
4174;SDS011;2101;48.290;14.382;2022-08-21T13:39:10;15.27;;;2.07;;
4174;SDS011;2101;48.290;14.382;2022-08-21T13:41:37;14.80;;;1.77;;
4174;SDS011;2101;48.290;14.382;2022-08-21T13:46:33;15.03;;;1.87;;
4174;SDS011;2101;48.290;14.382;2022-08-21T13:49:00;14.97;;;1.80;;
4174;SDS011;2101;48.290;14.382;2022-08-21T13:51:28;17.10;;;2.47;;
4174;SDS011;2101;48.290;14.382;2022-08-21T13:53:54;15.33;;;2.10;;
4174;SDS011;2101;48.290;14.382;2022-08-21T13:56:24;22.30;;;1.87;;
4174;SDS011;2101;48.290;14.382;2022-08-21T13:58:51;15.47;;;2.30;;
4174;SDS011;2101;48.290;14.382;2022-08-21T14:01:25;19.27;;;2.37;;
4174;SDS011;2101;48.290;14.382;2022-08-21T14:03:53;17.40;;;2.73;;
4174;SDS011;2101;48.290;14.382;2022-08-21T14:06:23;23.10;;;3.10;;
4174;SDS011;2101;48.290;14.382;2022-08-21T14:08:55;17.27;;;2.53;;
4174;SDS011;2101;48.290;14.382;2022-08-21T14:11:22;16.53;;;2.23;;
4174;SDS011;2101;48.290;14.382;2022-08-21T14:13:58;21.70;;;2.70;;
4174;SDS011;2101;48.290;14.382;2022-08-21T14:16:27;19.03;;;2.73;;
4174;SDS011;2101;48.290;14.382;2022-08-21T14:21:30;18.50;;;2.90;;
4174;SDS011;2101;48.290;14.382;2022-08-21T14:26:29;16.87;;;1.97;;
4174;SDS011;2101;48.290;14.382;2022-08-21T14:28:58;14.80;;;1.60;;
4174;SDS011;2101;48.290;14.382;2022-08-21T14:31:28;16.07;;;1.80;;
4174;SDS011;2101;48.290;14.382;2022-08-21T14:33:54;14.00;;;1.50;;
4174;SDS011;2101;48.290;14.382;2022-08-21T14:36:20;15.93;;;2.10;;
4174;SDS011;2101;48.290;14.382;2022-08-21T14:38:47;14.97;;;1.67;;
4174;SDS011;2101;48.290;14.382;2022-08-21T14:41:18;14.80;;;1.43;;
4174;SDS011;2101;48.290;14.382;2022-08-21T14:43:45;15.00;;;2.00;;
4174;SDS011;2101;48.290;14.382;2022-08-21T14:46:12;17.07;;;2.77;;
4174;SDS011;2101;48.290;14.382;2022-08-21T14:48:42;18.50;;;2.90;;
4174;SDS011;2101;48.290;14.382;2022-08-21T14:51:08;15.87;;;2.70;;
4174;SDS011;2101;48.290;14.382;2022-08-21T14:53:34;18.30;;;3.30;;
4174;SDS011;2101;48.290;14.382;2022-08-21T14:56:00;25.33;;;6.23;;
4174;SDS011;2101;48.290;14.382;2022-08-21T14:58:33;35.13;;;7.00;;
4174;SDS011;2101;48.290;14.382;2022-08-21T15:01:00;28.00;;;6.00;;
4174;SDS011;2101;48.290;14.382;2022-08-21T15:03:28;21.87;;;4.23;;
4174;SDS011;2101;48.290;14.382;2022-08-21T15:05:55;18.90;;;3.00;;
4174;SDS011;2101;48.290;14.382;2022-08-21T15:08:21;24.63;;;5.13;;
4174;SDS011;2101;48.290;14.382;2022-08-21T15:10:47;17.20;;;3.70;;
4174;SDS011;2101;48.290;14.382;2022-08-21T15:13:13;17.90;;;3.77;;
4174;SDS011;2101;48.290;14.382;2022-08-21T15:15:41;17.00;;;3.30;;
4174;SDS011;2101;48.290;14.382;2022-08-21T15:18:07;18.17;;;4.00;;
4174;SDS011;2101;48.290;14.382;2022-08-21T15:20:34;18.70;;;4.27;;
4174;SDS011;2101;48.290;14.382;2022-08-21T15:23:00;25.63;;;5.80;;
4174;SDS011;2101;48.290;14.382;2022-08-21T15:25:26;23.60;;;5.77;;
4174;SDS011;2101;48.290;14.382;2022-08-21T15:27:53;22.77;;;4.83;;
4174;SDS011;2101;48.290;14.382;2022-08-21T15:30:19;19.90;;;4.20;;
4174;SDS011;2101;48.290;14.382;2022-08-21T15:32:45;25.00;;;3.50;;
4174;SDS011;2101;48.290;14.382;2022-08-21T15:35:11;23.17;;;3.67;;
4174;SDS011;2101;48.290;14.382;2022-08-21T15:37:37;20.63;;;4.03;;
4174;SDS011;2101;48.290;14.382;2022-08-21T15:40:04;27.63;;;4.23;;
4174;SDS011;2101;48.290;14.382;2022-08-21T15:42:33;19.00;;;3.40;;
4174;SDS011;2101;48.290;14.382;2022-08-21T15:45:00;16.73;;;2.60;;
4174;SDS011;2101;48.290;14.382;2022-08-21T15:47:30;17.80;;;2.73;;
4174;SDS011;2101;48.290;14.382;2022-08-21T15:49:58;20.43;;;4.80;;
4174;SDS011;2101;48.290;14.382;2022-08-21T15:52:24;20.10;;;4.60;;
4174;SDS011;2101;48.290;14.382;2022-08-21T15:54:51;21.97;;;5.23;;
4174;SDS011;2101;48.290;14.382;2022-08-21T15:57:18;27.13;;;5.40;;
4174;SDS011;2101;48.290;14.382;2022-08-21T15:59:47;27.63;;;4.77;;
4174;SDS011;2101;48.290;14.382;2022-08-21T16:02:14;19.20;;;4.50;;
4174;SDS011;2101;48.290;14.382;2022-08-21T16:04:41;26.80;;;5.40;;
4174;SDS011;2101;48.290;14.382;2022-08-21T16:07:07;20.97;;;5.33;;
4174;SDS011;2101;48.290;14.382;2022-08-21T16:09:33;22.70;;;5.60;;
4174;SDS011;2101;48.290;14.382;2022-08-21T16:11:59;24.83;;;6.70;;
4174;SDS011;2101;48.290;14.382;2022-08-21T16:14:26;22.13;;;5.20;;
4174;SDS011;2101;48.290;14.382;2022-08-21T16:16:52;23.50;;;6.10;;
4174;SDS011;2101;48.290;14.382;2022-08-21T16:19:19;20.70;;;4.93;;
4174;SDS011;2101;48.290;14.382;2022-08-21T16:21:46;20.33;;;4.87;;
4174;SDS011;2101;48.290;14.382;2022-08-21T16:24:12;23.17;;;5.70;;
4174;SDS011;2101;48.290;14.382;2022-08-21T16:26:38;22.30;;;5.10;;